Time;durP1;ratioP1;P1;durP2;ratioP2;P2;SDS_P1;SDS_P2;PMS_P1;PMS_P2;Temp;Humidity;BMP_temperature;BMP_pressure;BME280_temperature;BME280_humidity;BME280_pressure;Samples;Min_cycle;Max_cycle;Signal;HPM_P1;HPM_P2
2023/01/20 00:01:17;;;;;;;17.42;8.05;;;;;;;3.30;68.27;97841.41;4364143;32;20147;-90
2023/01/20 00:03:44;;;;;;;18.90;8.10;;;;;;;3.17;68.82;97841.06;4364105;32;20094;-95
2023/01/20 00:06:11;;;;;;;21.20;9.68;;;;;;;3.60;67.18;97835.87;4364399;32;20099;-93
2023/01/20 00:08:37;;;;;;;20.93;9.00;;;;;;;3.30;68.00;97838.78;4364387;32;20102;-92
2023/01/20 00:11:08;;;;;;;20.23;8.02;;;;;;;2.65;69.68;97843.09;4372950;32;20210;-90
2023/01/20 00:13:35;;;;;;;21.67;9.77;;;;;;;2.52;69.97;97829.69;4381673;32;20091;-90
2023/01/20 00:16:05;;;;;;;20.43;8.43;;;;;;;2.61;70.19;97833.69;4364032;32;20483;-91
2023/01/20 00:18:31;;;;;;;21.98;9.13;;;;;;;2.25;71.58;97827.22;4374889;32;20087;-90
2023/01/20 00:21:01;;;;;;;20.37;8.93;;;;;;;2.20;72.12;97829.13;4364034;32;20123;-89
2023/01/20 00:23:26;;;;;;;19.67;9.00;;;;;;;2.20;71.84;97846.47;4362990;32;20091;-90
2023/01/20 00:25:54;;;;;;;21.55;8.80;;;;;;;2.41;71.59;97834.44;4364027;32;20117;-89
2023/01/20 00:28:20;;;;;;;22.95;9.13;;;;;;;2.64;70.67;97842.22;4363838;32;20086;-91
2023/01/20 00:30:45;;;;;;;19.75;8.43;;;;;;;2.62;70.79;97849.22;4363784;32;20121;-90
2023/01/20 00:33:11;;;;;;;22.05;9.55;;;;;;;2.90;69.68;97859.44;4364043;32;20091;-90
2023/01/20 00:35:37;;;;;;;21.02;9.07;;;;;;;3.05;69.22;97865.81;4372596;32;20087;-90
2023/01/20 00:38:03;;;;;;;24.37;9.13;;;;;;;3.34;68.27;97864.66;4360575;32;20106;-92
2023/01/20 00:40:28;;;;;;;22.08;10.10;;;;;;;3.00;69.19;97861.69;4361553;32;20162;-90
2023/01/20 00:42:53;;;;;;;22.37;9.80;;;;;;;2.49;71.30;97871.38;4362494;32;20474;-90
2023/01/20 00:45:19;;;;;;;23.25;9.93;;;;;;;2.77;70.22;97865.19;4362404;32;20130;-90
2023/01/20 00:47:44;;;;;;;24.63;10.55;;;;;;;2.88;69.82;97876.88;4363620;32;20090;-90
2023/01/20 00:50:10;;;;;;;22.10;9.88;;;;;;;3.03;68.40;97878.00;4358011;32;20150;-90
2023/01/20 00:52:35;;;;;;;21.40;9.88;;;;;;;3.25;68.35;97883.25;4361190;32;20155;-90
2023/01/20 00:55:01;;;;;;;20.20;9.27;;;;;;;3.27;67.97;97884.03;4361335;32;20138;-90
2023/01/20 00:57:27;;;;;;;20.52;9.77;;;;;;;2.74;70.12;97889.53;4360407;32;20552;-88
2023/01/20 00:59:52;;;;;;;18.70;8.90;;;;;;;2.82;69.55;97894.44;4358623;32;20138;-90
2023/01/20 01:02:17;;;;;;;23.20;9.50;;;;;;;2.55;69.85;97885.03;4360238;32;20084;-90
2023/01/20 01:04:43;;;;;;;23.62;10.63;;;;;;;3.26;68.45;97884.91;4359492;32;20106;-87
2023/01/20 01:07:08;;;;;;;20.92;9.90;;;;;;;3.20;68.22;97871.31;4361680;32;20087;-91
2023/01/20 01:09:34;;;;;;;23.65;10.45;;;;;;;2.98;69.17;97866.97;4359421;32;20116;-91
2023/01/20 01:12:02;;;;;;;22.02;10.35;;;;;;;3.29;68.00;97850.97;4361290;32;20134;-91
2023/01/20 01:14:31;;;;;;;23.15;10.10;;;;;;;3.12;68.80;97853.41;4361339;32;20099;-91
2023/01/20 01:16:56;;;;;;;;;;;;;;;3.09;68.41;97848.31;4361731;32;20086;-91
2023/01/20 01:19:21;;;;;;;22.00;9.65;;;;;;;3.62;67.07;97844.47;4361749;32;20009;-90
2023/01/20 01:21:49;;;;;;;21.92;10.23;;;;;;;3.42;67.54;97840.91;4359644;32;20209;-92
2023/01/20 01:24:14;;;;;;;19.33;8.95;;;;;;;3.63;66.81;97833.12;4359244;32;20087;-91
2023/01/20 01:26:43;;;;;;;21.25;9.98;;;;;;;3.71;66.29;97824.09;4361842;32;20109;-91
2023/01/20 01:29:08;;;;;;;21.05;9.43;;;;;;;3.38;67.58;97828.94;4360576;32;20129;-87
2023/01/20 01:31:34;;;;;;;21.98;9.55;;;;;;;2.98;68.27;97822.72;4361504;32;20094;-88
2023/01/20 01:33:59;;;;;;;23.25;10.52;;;;;;;3.35;67.34;97827.28;4360167;32;20139;-88
2023/01/20 01:36:24;;;;;;;23.10;10.05;;;;;;;3.07;68.14;97816.28;4372890;32;20314;-88
2023/01/20 01:38:50;;;;;;;23.45;9.93;;;;;;;3.13;68.55;97811.72;4358768;32;20095;-86
2023/01/20 01:41:16;;;;;;;23.50;10.48;;;;;;;3.08;68.71;97815.41;4372413;32;20274;-86
2023/01/20 01:44:10;;;;;;;22.58;10.30;;;;;;;3.24;68.20;97816.47;4359762;32;20500;-86
2023/01/20 01:46:36;;;;;;;24.08;9.57;;;;;;;3.47;67.81;97812.91;4359188;32;20443;-86
2023/01/20 01:49:24;;;;;;;21.95;9.98;;;;;;;3.09;68.73;97811.88;4359650;32;20103;-87
2023/01/20 01:51:55;;;;;;;20.65;9.13;;;;;;;3.46;67.02;97816.44;4360428;32;20107;-88
2023/01/20 01:54:23;;;;;;;22.23;9.75;;;;;;;3.52;66.91;97815.34;4360847;32;20126;-88
2023/01/20 01:56:49;;;;;;;20.50;9.20;;;;;;;3.17;68.04;97807.22;4359453;32;20064;-87
2023/01/20 01:59:19;;;;;;;24.15;9.68;;;;;;;3.04;68.34;97803.44;4361415;32;20108;-89
2023/01/20 02:01:48;;;;;;;20.75;9.70;;;;;;;3.19;68.39;97804.53;4363222;32;20102;-88
2023/01/20 02:04:16;;;;;;;19.75;9.35;;;;;;;2.94;68.96;97798.59;4361105;32;20103;-86
2023/01/20 02:06:45;;;;;;;20.98;8.95;;;;;;;3.11;68.44;97790.13;4360134;32;20501;-87
2023/01/20 02:09:10;;;;;;;19.92;8.52;;;;;;;2.98;68.97;97788.91;4371608;32;20155;-90
2023/01/20 02:11:40;;;;;;;20.75;8.85;;;;;;;3.16;68.26;97795.12;4357738;32;20149;-89
2023/01/20 02:14:06;;;;;;;20.80;9.07;;;;;;;3.02;68.72;97806.09;4364757;32;20083;-91
2023/01/20 02:16:35;;;;;;;22.20;9.95;;;;;;;2.82;69.92;97799.06;4364681;32;20083;-85
2023/01/20 02:19:19;;;;;;;19.75;8.57;;;;;;;2.65;70.70;97794.53;4364356;32;20125;-90
2023/01/20 02:22:12;;;;;;;20.90;9.15;;;;;;;3.08;69.22;97789.38;4360781;32;20091;-88
2023/01/20 02:24:46;;;;;;;20.48;8.90;;;;;;;3.18;68.83;97790.69;4348175;32;20074;-87
2023/01/20 02:27:33;;;;;;;18.15;8.15;;;;;;;3.09;68.65;97789.31;4363029;32;20114;-85
2023/01/20 02:30:32;;;;;;;18.23;7.80;;;;;;;3.08;68.86;97792.00;4362524;32;20488;-86
2023/01/20 02:33:24;;;;;;;19.87;8.43;;;;;;;3.24;67.89;97797.41;4353125;32;20121;-85
2023/01/20 02:36:10;;;;;;;18.98;7.68;;;;;;;2.59;69.96;97796.50;4359312;32;20689;-86
2023/01/20 02:38:54;;;;;;;19.92;7.55;;;;;;;3.21;67.91;97795.78;4361569;32;20119;-86
2023/01/20 02:41:27;;;;;;;19.67;7.53;;;;;;;3.64;66.40;97793.16;4363640;32;20122;-87
2023/01/20 02:43:59;;;;;;;19.40;8.40;;;;;;;3.48;66.28;97796.41;4361976;32;20153;-86
2023/01/20 02:46:33;;;;;;;20.23;9.02;;;;;;;3.50;66.73;97799.78;4361881;32;20384;-87
2023/01/20 02:49:13;;;;;;;19.77;8.68;;;;;;;3.11;67.08;97800.53;4371261;32;20083;-85
2023/01/20 02:52:09;;;;;;;21.87;9.55;;;;;;;3.12;68.18;97797.00;4356277;32;20164;-87
2023/01/20 02:54:37;;;;;;;21.12;10.10;;;;;;;3.41;67.21;97794.12;4359895;32;20107;-87
2023/01/20 02:57:05;;;;;;;21.67;9.40;;;;;;;3.31;67.64;97809.28;4361234;32;20098;-88
2023/01/20 02:59:33;;;;;;;23.20;9.90;;;;;;;3.17;68.19;97804.63;4361101;32;20113;-87
2023/01/20 03:02:05;;;;;;;21.83;9.95;;;;;;;2.83;69.58;97810.31;4348388;32;20404;-87
2023/01/20 03:04:37;;;;;;;22.33;9.60;;;;;;;3.30;67.94;97816.25;4375376;32;20127;-87
2023/01/20 03:07:03;;;;;;;22.42;9.52;;;;;;;3.38;67.84;97808.13;4349828;32;20095;-86
2023/01/20 03:09:39;;;;;;;23.12;10.32;;;;;;;2.81;68.74;97812.97;4359895;32;20162;-87
2023/01/20 03:12:15;;;;;;;22.35;10.18;;;;;;;3.34;67.88;97811.72;4361129;32;20094;-87
2023/01/20 03:14:40;;;;;;;22.52;10.10;;;;;;;3.18;67.56;97821.09;4349738;33;20170;-87
2023/01/20 03:17:05;;;;;;;23.17;10.05;;;;;;;3.82;66.08;97825.38;4361996;32;20139;-86
2023/01/20 03:19:31;;;;;;;23.60;10.40;;;;;;;3.83;65.91;97825.31;4347605;32;20087;-85
2023/01/20 03:21:56;;;;;;;25.95;10.75;;;;;;;3.96;65.01;97820.44;4354590;32;20408;-86
2023/01/20 03:24:22;;;;;;;23.08;9.80;;;;;;;3.33;66.72;97829.13;4356526;32;20355;-86
2023/01/20 03:26:48;;;;;;;23.42;10.45;;;;;;;3.30;67.51;97838.78;4361157;32;20114;-86
2023/01/20 03:29:14;;;;;;;22.87;10.45;;;;;;;3.80;66.10;97833.25;4373067;32;20087;-85
2023/01/20 03:31:47;;;;;;;21.50;9.50;;;;;;;3.65;66.38;97829.56;4364343;32;20122;-85
2023/01/20 03:34:16;;;;;;;21.33;9.27;;;;;;;3.63;66.82;97840.94;4377872;32;20396;-87
2023/01/20 03:36:42;;;;;;;23.30;10.38;;;;;;;3.95;66.05;97844.78;4363101;32;20459;-86
2023/01/20 03:39:08;;;;;;;23.52;10.38;;;;;;;3.32;67.45;97842.19;4364404;32;20074;-83
2023/01/20 03:41:43;;;;;;;21.33;9.60;;;;;;;4.10;65.70;97838.91;4363467;32;20122;-88
2023/01/20 03:44:17;;;;;;;22.23;10.10;;;;;;;4.19;65.33;97842.00;4364707;32;20443;-88
2023/01/20 03:46:51;;;;;;;24.33;11.07;;;;;;;4.14;65.50;97837.84;4363313;32;20091;-88
2023/01/20 03:49:19;;;;;;;23.55;10.55;;;;;;;3.54;67.06;97831.75;4363317;32;20436;-87
2023/01/20 03:52:09;;;;;;;23.92;9.82;;;;;;;3.85;66.07;97838.28;4363237;32;20150;-89
2023/01/20 03:54:53;;;;;;;22.33;10.13;;;;;;;3.93;65.71;97831.81;4364399;32;20097;-90
2023/01/20 03:57:24;;;;;;;22.65;10.23;;;;;;;3.82;66.31;97828.81;4363793;32;20135;-89
2023/01/20 03:59:50;;;;;;;22.40;10.48;;;;;;;4.04;65.38;97831.38;4363197;32;20377;-89
2023/01/20 04:02:15;;;;;;;21.58;9.73;;;;;;;4.00;65.27;97829.81;4364395;32;20121;-90
2023/01/20 04:04:42;;;;;;;20.20;9.38;;;;;;;4.13;64.96;97828.34;4364253;32;20130;-91
2023/01/20 04:07:11;;;;;;;23.00;11.10;;;;;;;3.84;66.15;97824.38;4364246;32;20462;-91
2023/01/20 04:09:39;;;;;;;19.83;9.40;;;;;;;3.99;65.33;97814.22;4364224;32;20186;-91
2023/01/20 04:12:05;;;;;;;21.60;10.02;;;;;;;4.25;64.91;97815.66;4375624;32;20133;-91
2023/01/20 04:14:31;;;;;;;20.37;8.45;;;;;;;4.55;64.25;97815.22;4364251;32;20103;-91
2023/01/20 04:16:57;;;;;;;20.50;9.55;;;;;;;4.69;63.87;97818.91;4375441;32;20428;-90
2023/01/20 04:19:23;;;;;;;20.95;8.68;;;;;;;4.86;63.67;97818.09;4364602;32;20103;-91
2023/01/20 04:21:54;;;;;;;19.73;9.13;;;;;;;5.06;63.20;97805.84;4362703;32;20424;-92
2023/01/20 04:24:37;;;;;;;21.05;8.07;;;;;;;5.22;62.89;97804.19;4364631;32;20098;-92
2023/01/20 04:27:02;;;;;;;18.87;8.20;;;;;;;4.82;63.09;97806.09;4364509;32;20117;-91
2023/01/20 04:29:27;;;;;;;18.08;8.02;;;;;;;5.23;62.42;97805.87;4364074;32;20084;-91
2023/01/20 04:32:01;;;;;;;19.60;8.15;;;;;;;4.89;63.22;97815.34;4364411;32;20130;-92
2023/01/20 04:34:26;;;;;;;18.60;7.82;;;;;;;4.89;63.34;97817.94;4364383;32;20161;-92
2023/01/20 04:36:52;;;;;;;18.70;7.68;;;;;;;5.00;63.04;97821.81;4364342;32;20098;-92
2023/01/20 04:39:17;;;;;;;17.67;7.40;;;;;;;5.19;62.60;97824.38;4364179;32;20083;-92
2023/01/20 04:41:42;;;;;;;18.87;7.43;;;;;;;5.41;62.09;97813.72;4364316;32;20092;-92
2023/01/20 04:44:08;;;;;;;17.35;7.32;;;;;;;5.51;61.92;97820.22;4364384;32;20364;-92
2023/01/20 04:46:33;;;;;;;17.52;7.68;;;;;;;5.21;62.52;97822.53;4375357;32;20102;-91
2023/01/20 04:48:59;;;;;;;17.17;7.95;;;;;;;4.69;63.23;97824.09;4364136;32;20474;-91
2023/01/20 04:51:24;;;;;;;17.80;7.62;;;;;;;4.91;63.05;97818.72;4363411;32;20130;-91
2023/01/20 04:53:50;;;;;;;16.83;6.95;;;;;;;4.88;63.10;97818.84;4363727;32;20123;-90
2023/01/20 04:56:15;;;;;;;18.58;7.68;;;;;;;4.60;63.72;97827.13;4363689;32;20468;-90
2023/01/20 04:58:41;;;;;;;17.83;7.78;;;;;;;4.29;64.66;97830.28;4363732;32;20083;-90
2023/01/20 05:01:07;;;;;;;17.77;7.35;;;;;;;4.65;63.83;97821.69;4362632;32;20095;-89
2023/01/20 05:03:33;;;;;;;17.02;7.43;;;;;;;4.43;64.22;97807.03;4363772;32;20153;-90
2023/01/20 05:05:59;;;;;;;17.65;7.43;;;;;;;4.60;63.47;97798.44;4363721;32;20374;-89
2023/01/20 05:08:24;;;;;;;18.80;8.48;;;;;;;4.17;65.22;97784.72;4363592;32;20079;-89
2023/01/20 05:10:50;;;;;;;17.40;6.90;;;;;;;4.37;64.59;97783.84;4363546;32;20459;-87
2023/01/20 05:13:15;;;;;;;16.45;7.20;;;;;;;4.44;64.70;97779.19;4363766;32;20141;-90
2023/01/20 05:15:42;;;;;;;17.58;7.60;;;;;;;4.05;65.26;97778.31;4363756;32;20143;-90
2023/01/20 05:18:08;;;;;;;17.73;7.43;;;;;;;4.51;64.40;97772.78;4363707;32;20138;-91
2023/01/20 05:20:33;;;;;;;19.02;7.55;;;;;;;4.50;64.11;97771.06;4363474;32;20466;-91
2023/01/20 05:22:58;;;;;;;17.37;7.35;;;;;;;4.30;65.00;97767.63;4363396;32;20133;-90
2023/01/20 05:25:24;;;;;;;16.15;6.30;;;;;;;4.41;64.77;97774.97;4363440;32;20106;-89
2023/01/20 05:27:49;;;;;;;16.90;6.80;;;;;;;4.42;64.73;97781.03;4363355;32;20117;-89
2023/01/20 05:30:15;;;;;;;16.37;7.15;;;;;;;4.37;64.97;97783.00;4374181;32;20380;-90
2023/01/20 05:32:40;;;;;;;15.13;6.03;;;;;;;4.41;64.99;97785.41;4363982;32;20154;-90
2023/01/20 05:35:07;;;;;;;17.23;7.15;;;;;;;3.93;66.31;97789.28;4365333;32;20083;-91
2023/01/20 05:37:32;;;;;;;18.52;7.22;;;;;;;4.33;65.58;97787.50;4365369;32;20113;-91
2023/01/20 05:39:58;;;;;;;17.33;6.93;;;;;;;4.02;66.37;97780.19;4365403;32;20360;-91
2023/01/20 05:42:23;;;;;;;15.52;6.50;;;;;;;4.30;65.68;97785.88;4365540;32;20146;-92
2023/01/20 05:44:48;;;;;;;17.85;6.85;;;;;;;4.17;66.53;97783.91;4365492;32;20082;-93
2023/01/20 05:47:14;;;;;;;16.75;7.32;;;;;;;4.44;65.54;97789.63;4365578;32;20100;-93
2023/01/20 05:49:39;;;;;;;16.48;7.10;;;;;;;4.45;65.60;97784.34;4365429;32;20502;-94
2023/01/20 05:52:05;;;;;;;17.45;6.93;;;;;;;4.66;65.01;97785.09;4365095;32;20138;-93
2023/01/20 05:54:30;;;;;;;20.12;7.75;;;;;;;5.00;64.23;97782.66;4365154;32;20082;-93
2023/01/20 05:56:56;;;;;;;14.70;6.12;;;;;;;4.27;66.46;97796.47;4365187;32;20087;-92
2023/01/20 05:59:22;;;;;;;16.70;6.85;;;;;;;4.50;65.42;97795.41;4365143;32;20412;-94
2023/01/20 06:01:47;;;;;;;16.40;6.62;;;;;;;4.57;65.19;97808.16;4365238;32;20122;-94
2023/01/20 06:04:13;;;;;;;16.92;6.70;;;;;;;4.86;64.62;97805.03;4365201;32;20079;-92
2023/01/20 06:06:38;;;;;;;19.00;7.20;;;;;;;4.52;65.56;97796.19;4365197;32;20105;-93
2023/01/20 06:09:05;;;;;;;16.73;6.37;;;;;;;4.76;65.18;97795.12;4365061;32;20135;-94
2023/01/20 06:11:31;;;;;;;18.00;7.57;;;;;;;4.87;64.64;97800.69;4364966;32;20429;-91
2023/01/20 06:13:56;;;;;;;17.15;7.30;;;;;;;4.65;65.60;97796.44;4365022;32;20083;-90
2023/01/20 06:16:22;;;;;;;16.58;7.05;;;;;;;4.57;65.84;97789.91;4365042;32;20083;-87
2023/01/20 06:18:47;;;;;;;16.98;6.97;;;;;;;4.52;66.33;97793.56;4365406;32;20087;-88
2023/01/20 06:21:13;;;;;;;17.12;7.50;;;;;;;4.93;64.70;97790.78;4376476;32;20111;-89
2023/01/20 06:23:38;;;;;;;16.35;7.45;;;;;;;4.93;65.04;97788.19;4365236;32;20129;-90
2023/01/20 06:26:06;;;;;;;19.67;8.45;;;;;;;4.82;65.28;97785.22;4364809;32;20264;-90
2023/01/20 06:28:32;;;;;;;16.62;7.28;;;;;;;5.18;64.15;97778.31;4362933;32;20103;-91
2023/01/20 06:31:00;;;;;;;18.45;7.40;;;;;;;4.87;65.90;97779.81;4364643;32;20103;-87
2023/01/20 06:33:25;;;;;;;17.83;7.12;;;;;;;4.89;65.59;97786.62;4365231;32;20517;-86
2023/01/20 06:35:55;;;;;;;16.40;7.12;;;;;;;5.11;64.82;97783.00;4364478;32;20090;-87
2023/01/20 06:38:25;;;;;;;16.87;7.20;;;;;;;5.24;64.36;97789.31;4361326;32;20114;-89
2023/01/20 06:40:55;;;;;;;17.27;7.00;;;;;;;5.17;64.57;97781.84;4363569;32;20095;-89
2023/01/20 06:43:21;;;;;;;17.25;7.50;;;;;;;5.31;64.19;97780.25;4362346;32;20098;-90
2023/01/20 06:45:46;;;;;;;16.83;7.20;;;;;;;4.95;65.28;97789.88;4362786;32;20091;-92
2023/01/20 06:48:11;;;;;;;17.05;6.65;;;;;;;5.02;64.93;97793.88;4364032;32;20157;-92
2023/01/20 06:50:37;;;;;;;14.95;6.70;;;;;;;4.90;65.39;97800.53;4364059;32;20135;-91
2023/01/20 06:53:02;;;;;;;15.80;7.10;;;;;;;4.79;65.73;97806.25;4371293;27;20142;-94
2023/01/20 06:55:28;;;;;;;15.75;6.45;;;;;;;4.84;66.03;97811.25;4365117;32;20462;-94
2023/01/20 06:57:53;;;;;;;17.25;7.30;;;;;;;5.19;64.85;97806.94;4374448;32;20154;-92
2023/01/20 07:00:19;;;;;;;16.92;6.80;;;;;;;5.13;65.03;97808.09;4363960;32;20088;-85
2023/01/20 07:02:47;;;;;;;16.00;7.12;;;;;;;4.98;65.33;97808.81;4363247;32;20099;-85
2023/01/20 07:05:12;;;;;;;15.95;6.28;;;;;;;4.94;65.77;97817.72;4376060;32;20491;-85
2023/01/20 07:07:38;;;;;;;17.00;7.05;;;;;;;5.02;65.79;97813.00;4364451;32;20141;-85
2023/01/20 07:10:04;;;;;;;17.35;7.28;;;;;;;4.78;66.48;97824.59;4358214;32;20098;-86
2023/01/20 07:12:29;;;;;;;18.00;7.75;;;;;;;5.19;65.28;97813.94;4360569;32;20459;-84
2023/01/20 07:14:54;;;;;;;17.95;7.60;;;;;;;5.39;64.57;97807.75;4365287;32;20145;-85
2023/01/20 07:17:20;;;;;;;17.00;7.28;;;;;;;5.22;64.43;97817.25;4365929;32;20102;-85
2023/01/20 07:19:45;;;;;;;18.83;8.10;;;;;;;5.37;64.33;97822.63;4360269;32;20107;-83
2023/01/20 07:22:11;;;;;;;17.67;8.00;;;;;;;5.44;63.95;97816.19;4362671;32;20147;-82
2023/01/20 07:24:36;;;;;;;17.83;7.68;;;;;;;5.36;64.21;97820.97;4362608;32;20130;-83
2023/01/20 07:27:02;;;;;;;18.15;7.70;;;;;;;4.85;65.75;97836.44;4377938;32;20380;-84
2023/01/20 07:29:27;;;;;;;19.08;7.85;;;;;;;5.24;64.78;97841.53;4373170;32;20107;-84
2023/01/20 07:31:52;;;;;;;19.23;8.25;;;;;;;4.93;65.62;97840.38;4362006;32;20145;-84
2023/01/20 07:34:18;;;;;;;18.98;8.02;;;;;;;5.07;65.32;97834.50;4362144;32;20118;-87
2023/01/20 07:36:45;;;;;;;19.55;8.02;;;;;;;5.04;65.52;97832.06;4347891;32;20134;-86
2023/01/20 07:39:11;;;;;;;19.42;7.28;;;;;;;5.27;64.88;97838.78;4361887;32;20078;-81
2023/01/20 07:41:37;;;;;;;16.98;7.40;;;;;;;4.95;65.79;97840.31;4371114;32;20122;-82
2023/01/20 07:44:03;;;;;;;17.75;7.37;;;;;;;4.97;65.90;97842.84;4347357;32;20135;-81
2023/01/20 07:46:28;;;;;;;17.70;7.43;;;;;;;4.63;66.81;97839.19;4347602;32;20126;-82
2023/01/20 07:48:54;;;;;;;17.23;7.68;;;;;;;5.10;65.03;97836.97;4374166;32;20094;-82
2023/01/20 07:51:20;;;;;;;18.08;7.55;;;;;;;5.18;64.69;97844.44;4364002;32;20079;-81
2023/01/20 07:53:47;;;;;;;18.87;7.80;;;;;;;4.81;65.83;97843.56;4364270;32;20105;-81
2023/01/20 07:56:16;;;;;;;18.83;8.15;;;;;;;5.20;64.74;97840.00;4350013;32;20379;-81
2023/01/20 07:58:46;;;;;;;18.48;7.75;;;;;;;4.77;65.96;97844.63;4363068;32;20125;-81
2023/01/20 08:01:15;;;;;;;17.08;7.62;;;;;;;5.27;64.58;97850.97;4362993;32;20101;-83
2023/01/20 08:03:41;;;;;;;18.45;7.45;;;;;;;5.42;63.76;97852.00;4363207;32;20126;-84
2023/01/20 08:06:08;;;;;;;18.85;8.27;;;;;;;5.09;64.75;97853.53;4363302;32;20174;-85
2023/01/20 08:08:34;;;;;;;18.15;7.80;;;;;;;4.97;65.23;97856.75;4373803;32;20145;-85
2023/01/20 08:11:00;;;;;;;19.90;7.45;;;;;;;5.19;64.60;97853.09;4362242;32;20518;-85
2023/01/20 08:13:30;;;;;;;19.95;8.23;;;;;;;5.39;63.55;97863.44;4360930;32;20098;-84
2023/01/20 08:15:59;;;;;;;19.40;8.23;;;;;;;5.28;64.20;97865.72;4363065;32;20117;-84
2023/01/20 08:18:24;;;;;;;18.65;7.80;;;;;;;5.40;63.88;97867.75;4387351;32;20104;-84
2023/01/20 08:20:50;;;;;;;18.33;7.93;;;;;;;5.29;63.65;97872.63;4387526;32;20087;-85
2023/01/20 08:23:15;;;;;;;20.50;7.85;;;;;;;4.64;66.18;97882.63;4364033;32;20079;-84
2023/01/20 08:25:40;;;;;;;17.37;7.75;;;;;;;4.45;66.32;97878.22;4363983;32;20080;-84
2023/01/20 08:28:06;;;;;;;17.12;7.60;;;;;;;4.87;65.58;97877.19;4364193;32;20080;-84
2023/01/20 08:30:31;;;;;;;19.52;7.32;;;;;;;5.10;64.58;97872.69;4364298;32;20106;-85
2023/01/20 08:32:57;;;;;;;16.02;7.37;;;;;;;4.96;65.05;97872.47;4363024;32;20143;-84
2023/01/20 08:35:22;;;;;;;20.10;8.35;;;;;;;4.53;66.60;97876.09;4364137;32;20249;-85
2023/01/20 08:37:48;;;;;;;17.35;7.53;;;;;;;4.85;65.80;97875.59;4364070;32;20087;-85
2023/01/20 08:40:13;;;;;;;18.92;8.30;;;;;;;5.11;65.05;97876.97;4363262;32;20102;-84
2023/01/20 08:42:39;;;;;;;17.23;7.57;;;;;;;4.84;66.00;97881.72;4364355;32;20078;-85
2023/01/20 08:45:06;;;;;;;16.40;7.72;;;;;;;5.13;64.95;97875.13;4364413;32;20095;-85
2023/01/20 08:47:35;;;;;;;18.42;8.27;;;;;;;5.28;64.72;97869.19;4363240;32;20138;-84
2023/01/20 08:50:01;;;;;;;18.70;7.82;;;;;;;5.09;65.08;97873.59;4363190;32;20079;-85
2023/01/20 08:52:27;;;;;;;17.25;7.40;;;;;;;4.91;65.72;97875.31;4364137;32;20097;-84
2023/01/20 08:54:52;;;;;;;18.42;8.88;;;;;;;5.17;64.58;97868.84;4364288;32;20122;-84
2023/01/20 08:57:18;;;;;;;18.67;8.15;;;;;;;5.41;64.17;97876.41;4364229;32;20084;-84
2023/01/20 08:59:45;;;;;;;17.83;6.93;;;;;;;5.56;63.70;97873.06;4362899;32;20131;-85
2023/01/20 09:02:11;;;;;;;19.35;7.55;;;;;;;5.27;64.23;97871.84;4364071;32;20427;-84
2023/01/20 09:04:36;;;;;;;20.58;7.87;;;;;;;5.06;64.72;97881.56;4364316;32;20079;-84
2023/01/20 09:07:02;;;;;;;18.30;7.87;;;;;;;5.23;64.75;97886.81;4364828;32;20148;-84
2023/01/20 09:09:27;;;;;;;19.95;8.52;;;;;;;5.07;65.14;97888.47;4365730;32;20075;-85
2023/01/20 09:11:53;;;;;;;20.08;7.70;;;;;;;4.37;67.13;97885.53;4365847;32;20122;-84
2023/01/20 09:14:20;;;;;;;18.98;8.20;;;;;;;4.59;66.90;97885.44;4365823;32;20113;-84
2023/01/20 09:16:46;;;;;;;18.55;7.93;;;;;;;4.61;67.18;97885.34;4364674;32;20162;-85
2023/01/20 09:19:11;;;;;;;20.83;8.75;;;;;;;5.14;65.75;97884.66;4365787;32;20368;-84
2023/01/20 09:21:37;;;;;;;20.48;8.10;;;;;;;4.81;66.82;97884.44;4365652;32;20126;-85
2023/01/20 09:24:03;;;;;;;19.17;8.10;;;;;;;5.17;65.62;97868.00;4388787;32;20103;-86
2023/01/20 09:26:37;;;;;;;18.33;7.20;;;;;;;4.91;66.21;97873.53;4364261;32;20501;-84
2023/01/20 09:29:07;;;;;;;18.70;7.65;;;;;;;5.03;65.63;97868.66;4361932;32;20170;-84
2023/01/20 09:31:33;;;;;;;18.48;7.72;;;;;;;4.85;66.13;97862.53;4349544;33;20076;-85
2023/01/20 09:34:00;;;;;;;18.90;7.25;;;;;;;5.31;65.15;97844.66;4350724;32;20122;-85
2023/01/20 09:36:28;;;;;;;19.05;7.87;;;;;;;5.49;64.20;97842.94;4361813;32;20126;-85
2023/01/20 09:44:48;;;;;;;16.60;7.10;;;;;;;4.88;65.91;97833.69;4350631;33;20134;-85
2023/01/20 09:47:28;;;;;;;18.33;7.97;;;;;;;4.91;65.88;97823.94;4361770;32;20107;-85
2023/01/20 09:53:03;;;;;;;16.53;6.83;;;;;;;5.21;64.90;97822.53;4350286;33;20146;-85
2023/01/20 09:55:51;;;;;;;18.37;7.50;;;;;;;5.00;65.78;97821.81;4350482;32;20442;-85
2023/01/20 09:58:26;;;;;;;16.70;7.03;;;;;;;4.83;65.75;97828.69;4361807;32;20099;-84
2023/01/20 10:01:12;;;;;;;17.37;6.65;;;;;;;4.95;65.63;97818.59;4350505;32;20099;-85
2023/01/20 10:03:47;;;;;;;16.75;6.72;;;;;;;4.73;65.87;97810.00;4350688;33;20099;-85
2023/01/20 10:06:18;;;;;;;19.33;7.85;;;;;;;4.97;65.47;97798.47;4350422;32;20113;-85
2023/01/20 10:08:52;;;;;;;17.52;6.78;;;;;;;4.49;66.88;97806.75;4350488;32;20806;-85
2023/01/20 10:11:21;;;;;;;17.75;7.12;;;;;;;4.47;67.63;97792.09;4361431;32;20190;-85
2023/01/20 10:13:51;;;;;;;17.40;6.90;;;;;;;4.91;66.47;97783.97;4361344;32;20139;-85
2023/01/20 10:16:26;;;;;;;16.12;6.75;;;;;;;4.75;65.90;97780.38;4350321;32;20119;-85
2023/01/20 10:19:00;;;;;;;16.33;6.45;;;;;;;4.84;66.47;97766.91;4373507;32;20123;-85
2023/01/20 10:21:34;;;;;;;16.37;6.40;;;;;;;4.81;65.58;97757.47;4361461;32;20103;-85
2023/01/20 10:24:03;;;;;;;15.32;6.70;;;;;;;4.64;65.90;97765.25;4361534;32;20106;-85
2023/01/20 10:26:33;;;;;;;16.37;6.50;;;;;;;5.01;65.19;97755.66;4350229;32;20096;-85
2023/01/20 10:29:00;;;;;;;14.70;6.12;;;;;;;4.52;66.70;97759.69;4373856;32;20095;-84
2023/01/20 10:31:28;;;;;;;16.00;5.65;;;;;;;4.90;64.86;97756.16;4368353;32;20200;-84
2023/01/20 10:33:58;;;;;;;14.93;6.40;;;;;;;5.01;64.50;97771.31;4376267;32;20207;-83
2023/01/20 10:36:28;;;;;;;14.80;5.40;;;;;;;5.07;64.17;97763.19;4375446;32;20098;-83
2023/01/20 10:38:57;;;;;;;14.73;5.90;;;;;;;5.52;63.01;97759.19;4369910;32;20091;-83
2023/01/20 10:41:29;;;;;;;15.05;5.32;;;;;;;5.13;63.82;97748.03;4361321;32;20103;-83
2023/01/20 10:43:55;;;;;;;12.90;5.07;;;;;;;5.29;63.21;97756.00;4363709;32;20435;-83
2023/01/20 10:46:40;;;;;;;14.25;5.40;;;;;;;5.18;63.50;97758.28;4363084;32;20095;-83
2023/01/20 10:49:34;;;;;;;15.27;6.03;;;;;;;5.49;62.56;97764.59;4363544;32;20103;-83
2023/01/20 10:52:18;;;;;;;14.35;5.22;;;;;;;5.68;62.69;97774.97;4362240;32;20493;-83
2023/01/20 10:54:53;;;;;;;13.23;4.68;;;;;;;6.11;60.73;97770.13;4362369;32;20113;-82
2023/01/20 10:57:19;;;;;;;14.32;5.53;;;;;;;5.38;61.67;97772.94;4360514;32;20718;-83
2023/01/20 10:59:55;;;;;;;15.05;5.65;;;;;;;5.70;61.86;97778.34;4373198;32;20130;-83
2023/01/20 11:02:25;;;;;;;12.85;5.43;;;;;;;5.72;61.61;97779.94;4355248;32;20091;-83
2023/01/20 11:04:54;;;;;;;13.60;5.68;;;;;;;5.93;60.68;97779.75;4361320;32;20098;-83
2023/01/20 11:07:20;;;;;;;15.02;6.07;;;;;;;5.28;62.43;97784.78;4363310;32;20201;-83
2023/01/20 11:09:46;;;;;;;13.82;5.57;;;;;;;6.13;59.83;97783.13;4372927;32;20127;-83
2023/01/20 11:12:15;;;;;;;13.13;4.87;;;;;;;5.64;61.23;97776.00;4362820;32;20099;-83
2023/01/20 11:14:42;;;;;;;15.00;5.50;;;;;;;6.14;59.72;97769.97;4361302;32;20482;-83
2023/01/20 11:17:13;;;;;;;14.85;6.32;;;;;;;5.28;62.17;97774.34;4362094;32;20142;-83
2023/01/20 11:20:05;;;;;;;13.18;5.28;;;;;;;5.55;61.68;97777.34;4373495;32;20098;-83
2023/01/20 11:22:32;;;;;;;14.13;5.43;;;;;;;6.00;60.09;97769.84;4361407;32;20200;-83
2023/01/20 11:24:59;;;;;;;17.23;6.07;;;;;;;5.80;60.63;97761.25;4362683;32;20138;-83
2023/01/20 11:27:28;;;;;;;13.85;5.53;;;;;;;5.76;60.91;97757.09;4361503;32;20122;-83
2023/01/20 11:30:04;;;;;;;12.77;4.97;;;;;;;5.78;60.96;97747.41;4372198;32;20165;-83
2023/01/20 11:32:32;;;;;;;16.30;6.18;;;;;;;5.63;61.36;97751.66;4361181;32;20107;-83
2023/01/20 11:35:00;;;;;;;19.98;5.68;;;;;;;5.95;59.84;97743.06;4361551;32;20087;-83
2023/01/20 11:37:34;;;;;;;14.40;5.72;;;;;;;5.97;60.77;97736.87;4363511;32;20147;-83
2023/01/20 11:40:15;;;;;;;14.25;5.72;;;;;;;5.96;60.85;97732.56;4361645;32;20122;-83
2023/01/20 11:42:45;;;;;;;13.62;5.65;;;;;;;5.66;61.61;97730.59;4361418;32;20459;-83
2023/01/20 11:45:33;;;;;;;13.73;5.55;;;;;;;5.61;nan;97716.09;4362934;32;20210;-83
2023/01/20 11:48:05;;;;;;;14.98;5.68;;;;;;;5.76;61.34;97722.31;4361526;32;20811;-83